Time;durP1;ratioP1;P1;durP2;ratioP2;P2;SDS_P1;SDS_P2;PMS_P1;PMS_P2;Temp;Humidity;BMP_temperature;BMP_pressure;BME280_temperature;BME280_humidity;BME280_pressure;Samples;Min_cycle;Max_cycle;Signal;HPM_P1;HPM_P2
2021/03/29 00:02:18;;;;;;;3.2;0.9;;;;;;;3.95;65.14648;952.2466;;;;
2021/03/29 00:04:44;;;;;;;1.4;1.1;;;;;;;3.81;65.68652;952.108;;;;
2021/03/29 00:07:09;;;;;;;2.1;1.5;;;;;;;3.8;65.89941;952.223;;;;
2021/03/29 00:09:35;;;;;;;3.8;1.2;;;;;;;3.86;65.52539;952.2;;;;
2021/03/29 00:12:05;;;;;;;6.2;1.2;;;;;;;3.86;65.09863;952.132;;;;
2021/03/29 00:14:38;;;;;;;1.1;0.7;;;;;;;3.93;65.29004;952.1306;;;;
2021/03/29 00:17:10;;;;;;;1.9;1.3;;;;;;;3.93;65.3125;952.1836;;;;
2021/03/29 00:19:36;;;;;;;2.1;1.3;;;;;;;3.97;65.25;952.1609;;;;
2021/03/29 00:22:04;;;;;;;1;0.9;;;;;;;3.98;65.27539;952.1461;;;;
2021/03/29 00:24:36;;;;;;;3.5;1.8;;;;;;;3.94;64.9873;952.1809;;;;
2021/03/29 00:27:01;;;;;;;3;1.1;;;;;;;4;65.06348;952.1917;;;;
2021/03/29 00:29:26;;;;;;;2.8;1.8;;;;;;;4.01;64.62598;952.1973;;;;
2021/03/29 00:31:52;;;;;;;4.6;1.8;;;;;;;3.96;64.86621;952.1178;;;;
2021/03/29 00:34:17;;;;;;;3.8;1.8;;;;;;;3.93;65.06445;952.1133;;;;
2021/03/29 00:36:42;;;;;;;4.4;1.6;;;;;;;3.85;65.0752;952.1598;;;;
2021/03/29 00:39:08;;;;;;;2.8;1.5;;;;;;;3.87;65.46973;952.1033;;;;
2021/03/29 00:41:33;;;;;;;1.5;1.4;;;;;;;3.84;65.89355;952.1689;;;;
2021/03/29 00:43:58;;;;;;;11;1.7;;;;;;;3.68;66.63281;952.1216;;;;
2021/03/29 00:46:25;;;;;;;2.8;1.3;;;;;;;3.65;66.3252;952.0744;;;;
2021/03/29 00:48:51;;;;;;;1.7;1.3;;;;;;;3.73;65.97852;952.1392;;;;
2021/03/29 00:51:17;;;;;;;2.3;1.4;;;;;;;3.7;65.83789;952.0886;;;;
2021/03/29 00:53:42;;;;;;;4.2;1.1;;;;;;;3.49;66.24512;952.127;;;;
2021/03/29 00:56:07;;;;;;;1.4;1.1;;;;;;;3.34;67.07422;952.1541;;;;
2021/03/29 00:58:32;;;;;;;2.2;1.4;;;;;;;3.41;66.69141;952.1016;;;;
2021/03/29 01:00:57;;;;;;;5.5;2;;;;;;;3.38;67.25879;952.0938;;;;
2021/03/29 01:03:23;;;;;;;1.4;1.3;;;;;;;3.39;67.17188;952.0868;;;;
2021/03/29 01:05:49;;;;;;;2.3;1.5;;;;;;;3.41;67.35449;952.1078;;;;
2021/03/29 01:08:14;;;;;;;3;1.6;;;;;;;3.42;67.44727;952.1119;;;;
2021/03/29 01:10:43;;;;;;;2.9;1.7;;;;;;;3.31;67.78711;952.0767;;;;
2021/03/29 01:13:09;;;;;;;1.7;1.3;;;;;;;3.38;67.71875;952.0916;;;;
2021/03/29 01:15:41;;;;;;;2.7;1.5;;;;;;;3.45;67.11426;952.1027;;;;
2021/03/29 01:18:12;;;;;;;2.5;1.6;;;;;;;3.47;67.36426;952.1067;;;;
2021/03/29 01:20:44;;;;;;;2.4;1.4;;;;;;;3.26;67.62305;952.0952;;;;
2021/03/29 01:23:09;;;;;;;5.5;1.3;;;;;;;3.32;67.57715;952.1292;;;;
2021/03/29 01:25:40;;;;;;;5.7;1.2;;;;;;;3.26;67.87012;952.1492;;;;
2021/03/29 01:28:05;;;;;;;3.8;1.5;;;;;;;3.31;68.01074;952.1127;;;;
2021/03/29 01:30:30;;;;;;;3.8;1.4;;;;;;;3.2;68.47754;952.1459;;;;
2021/03/29 01:32:55;;;;;;;3.7;1.1;;;;;;;3.19;68.82422;952.2118;;;;
2021/03/29 01:35:20;;;;;;;4.1;1.3;;;;;;;3.06;69.28613;952.153;;;;
2021/03/29 01:37:46;;;;;;;3;1.3;;;;;;;2.87;69.80273;952.1552;;;;
2021/03/29 01:40:11;;;;;;;1.5;1.2;;;;;;;2.76;70.39258;952.1705;;;;
2021/03/29 01:42:36;;;;;;;2.3;1.4;;;;;;;2.89;70.11035;952.1948;;;;
2021/03/29 01:45:04;;;;;;;10;1.2;;;;;;;3.03;69.3584;952.1808;;;;
2021/03/29 01:47:29;;;;;;;1.4;1.1;;;;;;;3.03;68.9668;952.1867;;;;
2021/03/29 01:49:56;;;;;;;2.1;1.4;;;;;;;3.09;68.7168;952.163;;;;
2021/03/29 01:52:21;;;;;;;1.7;1.3;;;;;;;3.07;68.66895;952.1677;;;;
2021/03/29 01:54:48;;;;;;;1.3;1;;;;;;;3.05;68.83398;952.197;;;;
2021/03/29 01:57:13;;;;;;;4.6;1.1;;;;;;;3.04;68.76563;952.1823;;;;
2021/03/29 01:59:40;;;;;;;1.2;1.1;;;;;;;3.02;68.78516;952.1426;;;;
2021/03/29 02:02:05;;;;;;;3.9;1.2;;;;;;;3.05;68.78906;952.1278;;;;
2021/03/29 02:04:30;;;;;;;4.5;1;;;;;;;2.92;68.75781;952.1583;;;;
2021/03/29 02:06:58;;;;;;;2.4;1.1;;;;;;;2.96;68.97656;952.1793;;;;
2021/03/29 02:09:23;;;;;;;2.7;1.1;;;;;;;3.05;68.51953;952.2087;;;;
2021/03/29 02:11:51;;;;;;;2.2;1.1;;;;;;;2.95;68.7959;952.1909;;;;
2021/03/29 02:14:17;;;;;;;2.2;0.9;;;;;;;2.81;69.36816;952.187;;;;
2021/03/29 02:16:45;;;;;;;2.3;1.3;;;;;;;2.68;69.89551;952.195;;;;
2021/03/29 02:19:10;;;;;;;3.1;1.2;;;;;;;2.57;70.45996;952.1763;;;;
2021/03/29 02:21:35;;;;;;;1.8;1.3;;;;;;;2.49;70.68164;952.1426;;;;
2021/03/29 02:24:00;;;;;;;1.3;1.1;;;;;;;2.52;70.74219;952.1505;;;;
2021/03/29 02:26:25;;;;;;;1.2;0.8;;;;;;;2.45;70.77637;952.186;;;;
2021/03/29 02:28:52;;;;;;;1.3;1.2;;;;;;;2.57;70.45996;952.2589;;;;
2021/03/29 02:31:17;;;;;;;9.5;1.7;;;;;;;2.41;70.51172;952.191;;;;
2021/03/29 02:33:45;;;;;;;0.7;0.7;;;;;;;2.52;69.52051;952.1269;;;;
2021/03/29 02:36:10;;;;;;;2.8;1.2;;;;;;;2.55;69.29199;952.147;;;;
2021/03/29 02:38:37;;;;;;;1.2;0.9;;;;;;;2.55;69.36816;952.1451;;;;
2021/03/29 02:41:02;;;;;;;1.5;1.1;;;;;;;2.44;69.92383;952.2353;;;;
2021/03/29 02:43:29;;;;;;;1.1;1;;;;;;;2.41;69.99805;952.1936;;;;
2021/03/29 02:45:54;;;;;;;2.1;1.3;;;;;;;2.4;70.26367;952.1656;;;;
2021/03/29 02:48:21;;;;;;;1.5;1.1;;;;;;;2.34;70.18555;952.1508;;;;
2021/03/29 02:50:46;;;;;;;5.8;1.9;;;;;;;2.42;69.95313;952.2159;;;;
2021/03/29 02:53:11;;;;;;;1.7;0.9;;;;;;;2.16;70.65039;952.1094;;;;
2021/03/29 02:55:38;;;;;;;2.9;1;;;;;;;2.06;71.04785;952.1961;;;;
2021/03/29 02:58:04;;;;;;;1;0.9;;;;;;;2.07;71.12793;952.1873;;;;
2021/03/29 03:00:33;;;;;;;0.8;0.8;;;;;;;2.15;70.97363;952.2178;;;;
2021/03/29 03:03:01;;;;;;;1.6;1.2;;;;;;;2.2;71.18359;952.2252;;;;
2021/03/29 03:05:26;;;;;;;1.1;1;;;;;;;2.21;71.18359;952.2037;;;;
2021/03/29 03:07:54;;;;;;;2.8;1.4;;;;;;;2.09;71.64551;952.252;;;;
2021/03/29 03:10:19;;;;;;;0.8;0.8;;;;;;;2.16;71.40039;952.1701;;;;
2021/03/29 03:12:47;;;;;;;1.7;1.2;;;;;;;2.27;70.94922;952.1633;;;;
2021/03/29 03:15:12;;;;;;;0.7;0.7;;;;;;;2.15;70.88379;952.1733;;;;
2021/03/29 03:17:46;;;;;;;1.1;0.8;;;;;;;2.14;71.10645;952.1956;;;;
2021/03/29 03:20:14;;;;;;;1.1;1;;;;;;;2.05;71.10059;952.202;;;;
2021/03/29 03:22:40;;;;;;;9;1.3;;;;;;;2.14;71.26172;952.2911;;;;
2021/03/29 03:25:12;;;;;;;1.4;0.8;;;;;;;2.23;70.87305;952.3119;;;;
2021/03/29 03:27:40;;;;;;;2.8;1.8;;;;;;;2.2;70.33105;952.3217;;;;
2021/03/29 03:30:05;;;;;;;3.2;2.3;;;;;;;2.32;70.02637;952.3497;;;;
2021/03/29 03:32:30;;;;;;;2.8;2.2;;;;;;;2.34;70.08496;952.3552;;;;
2021/03/29 03:35:00;;;;;;;3.2;1.7;;;;;;;2.31;70.27148;952.4092;;;;
2021/03/29 03:37:29;;;;;;;1.6;1.3;;;;;;;2.15;70.74902;952.3964;;;;
2021/03/29 03:39:54;;;;;;;2.1;1.1;;;;;;;2.07;70.81445;952.3928;;;;
2021/03/29 03:42:19;;;;;;;2.7;1.5;;;;;;;2.04;70.79688;952.339;;;;
2021/03/29 03:44:47;;;;;;;2.1;1.2;;;;;;;2.15;70.23438;952.3618;;;;
2021/03/29 03:47:13;;;;;;;2;0.8;;;;;;;2.34;69.85156;952.3702;;;;
2021/03/29 03:49:42;;;;;;;2.3;1.2;;;;;;;2.48;69.44824;952.4263;;;;
2021/03/29 03:52:07;;;;;;;3.1;1.7;;;;;;;2.52;68.91699;952.4165;;;;
2021/03/29 03:54:35;;;;;;;4.7;2.2;;;;;;;2.47;69.09863;952.3315;;;;
2021/03/29 03:57:00;;;;;;;3.7;1.7;;;;;;;2.33;69.40039;952.3897;;;;
2021/03/29 03:59:25;;;;;;;4.3;2.5;;;;;;;2.28;69.89648;952.3591;;;;
2021/03/29 04:02:30;;;;;;;4.5;2.2;;;;;;;2.16;70.41504;952.4152;;;;
2021/03/29 04:04:55;;;;;;;1.9;1.1;;;;;;;2.03;70.7168;952.3516;;;;
2021/03/29 04:07:23;;;;;;;3.9;1.6;;;;;;;1.99;71.22559;952.3348;;;;
2021/03/29 04:09:55;;;;;;;1.6;1.3;;;;;;;1.92;71.66113;952.3717;;;;
2021/03/29 04:12:13;;;;;;;2.2;1.4;;;;;;;1.8;72.00879;952.4666;;;;
2021/03/29 04:14:40;;;;;;;1.6;0.9;;;;;;;1.68;72.25781;952.4652;;;;
2021/03/29 04:17:06;;;;;;;0.8;0.8;;;;;;;1.78;71.69336;952.4637;;;;
2021/03/29 04:19:32;;;;;;;1;0.8;;;;;;;1.92;71.4043;952.4609;;;;
2021/03/29 04:21:57;;;;;;;3.3;1.8;;;;;;;1.83;71.55859;952.5236;;;;
2021/03/29 04:24:22;;;;;;;6.2;1.7;;;;;;;1.87;71.21777;952.496;;;;
2021/03/29 04:26:47;;;;;;;5.2;1.8;;;;;;;1.93;70.79004;952.4796;;;;
2021/03/29 04:29:14;;;;;;;3.1;1.4;;;;;;;2.02;70.49219;952.5033;;;;
2021/03/29 04:31:39;;;;;;;4.9;1.7;;;;;;;2.02;70.22266;952.53;;;;
2021/03/29 04:34:06;;;;;;;1.4;0.9;;;;;;;1.95;69.875;952.5355;;;;
2021/03/29 04:36:31;;;;;;;1.5;1.3;;;;;;;1.99;69.9834;952.5531;;;;
2021/03/29 04:39:00;;;;;;;3.5;1.7;;;;;;;2.09;69.89746;952.5566;;;;
2021/03/29 04:41:27;;;;;;;2.3;1.5;;;;;;;2.23;69.37305;952.5666;;;;
2021/03/29 04:43:53;;;;;;;0.9;0.8;;;;;;;2.17;69.50977;952.5636;;;;
2021/03/29 04:46:19;;;;;;;3.8;2;;;;;;;2.12;69.65723;952.6245;;;;
2021/03/29 04:48:44;;;;;;;6;2;;;;;;;1.99;70.27441;952.6704;;;;
2021/03/29 04:51:09;;;;;;;2;1.3;;;;;;;1.87;70.74707;952.6569;;;;
2021/03/29 04:53:34;;;;;;;0.6;0.6;;;;;;;1.72;71.47168;952.6591;;;;
2021/03/29 04:56:00;;;;;;;1.2;1.1;;;;;;;1.66;71.94336;952.7145;;;;
2021/03/29 04:58:26;;;;;;;2.4;1.3;;;;;;;1.74;71.87891;952.7308;;;;
2021/03/29 05:00:53;;;;;;;1.1;0.8;;;;;;;1.66;71.86328;952.7361;;;;
2021/03/29 05:03:18;;;;;;;13.3;1.5;;;;;;;1.78;71.64844;952.6474;;;;
2021/03/29 05:05:43;;;;;;;1.3;0.6;;;;;;;1.73;71.62891;952.7569;;;;
2021/03/29 05:08:08;;;;;;;0.6;0.6;;;;;;;1.8;70.35547;952.7908;;;;
2021/03/29 05:10:39;;;;;;;2.3;1.5;;;;;;;1.82;70.51465;952.678;;;;
2021/03/29 05:12:59;;;;;;;1.7;0.9;;;;;;;1.91;70.1377;952.7547;;;;
2021/03/29 05:15:30;;;;;;;1.8;1;;;;;;;1.97;69.45508;952.8271;;;;
2021/03/29 05:17:54;;;;;;;0.9;0.9;;;;;;;2.06;69.01074;952.8466;;;;
2021/03/29 05:20:21;;;;;;;1;0.9;;;;;;;2.06;69.39063;952.8755;;;;
2021/03/29 05:22:47;;;;;;;3.6;1.2;;;;;;;2.06;69.69141;952.8745;;;;
2021/03/29 05:25:14;;;;;;;4.8;1.4;;;;;;;2.13;70.82324;952.9639;;;;
2021/03/29 05:27:39;;;;;;;2.3;1.5;;;;;;;2.1;69.57617;952.9171;;;;
2021/03/29 05:30:07;;;;;;;1.9;1;;;;;;;2.19;69.26465;952.9125;;;;
2021/03/29 05:32:32;;;;;;;6.3;1.5;;;;;;;2.35;73.98633;952.9453;;;;
2021/03/29 05:34:57;;;;;;;6.1;1.7;;;;;;;2.53;70.70996;952.9914;;;;
2021/03/29 05:37:22;;;;;;;8.2;2.1;;;;;;;2.66;68.72656;953.0818;;;;
2021/03/29 05:39:48;;;;;;;7.4;2.5;;;;;;;2.7;68.53027;953.0466;;;;
2021/03/29 05:42:13;;;;;;;3.4;2.2;;;;;;;2.73;67.86328;953.08;;;;
2021/03/29 05:44:40;;;;;;;5.9;2.1;;;;;;;2.84;67.75781;953.1114;;;;
2021/03/29 05:47:07;;;;;;;4.5;1.9;;;;;;;2.89;67.44043;953.0542;;;;
2021/03/29 05:49:32;;;;;;;5.9;1.5;;;;;;;3.2;66.99609;953.0499;;;;
2021/03/29 05:51:59;;;;;;;2.3;1.2;;;;;;;3.66;64.79883;953.1305;;;;
2021/03/29 05:54:24;;;;;;;4.3;1.6;;;;;;;3.99;63.17285;953.105;;;;
2021/03/29 05:56:50;;;;;;;7.5;3.4;;;;;;;4.61;60.34863;953.1451;;;;
2021/03/29 05:59:19;;;;;;;9.7;2.6;;;;;;;5.15;58.92578;953.0536;;;;
2021/03/29 06:01:39;;;;;;;9.5;3.3;;;;;;;6;56.01465;953.0397;;;;
2021/03/29 06:04:06;;;;;;;6.9;2.8;;;;;;;6.95;53.27441;953.158;;;;
2021/03/29 06:06:31;;;;;;;5.6;3.2;;;;;;;7.56;50.65137;953.1258;;;;
2021/03/29 06:08:56;;;;;;;4.7;2.8;;;;;;;8.05;49.2793;953.0608;;;;
2021/03/29 06:11:21;;;;;;;7.2;2.4;;;;;;;8.2;48.79688;953.0244;;;;
2021/03/29 06:13:48;;;;;;;7.1;2.3;;;;;;;8.37;48.37207;952.9811;;;;
2021/03/29 06:16:20;;;;;;;9.2;2.5;;;;;;;8.89;47.22461;953.0259;;;;
2021/03/29 06:18:45;;;;;;;2.8;2.2;;;;;;;9.46;45.44238;952.9938;;;;
2021/03/29 06:21:10;;;;;;;8.1;3.7;;;;;;;9.78;44.46289;952.9844;;;;
2021/03/29 06:23:35;;;;;;;13.8;2.2;;;;;;;10.4;43.23633;952.9856;;;;
2021/03/29 06:26:02;;;;;;;2.2;1.5;;;;;;;10.36;42.96875;952.9986;;;;
2021/03/29 06:28:29;;;;;;;3.3;1.1;;;;;;;10.7;41.66797;952.9381;;;;
2021/03/29 06:30:54;;;;;;;3;1.7;;;;;;;10.85;39.94434;952.9295;;;;
2021/03/29 06:33:19;;;;;;;3.2;1.1;;;;;;;11.55;39.11719;952.983;;;;
2021/03/29 06:35:45;;;;;;;1.7;1.2;;;;;;;12.23;38.05469;952.9053;;;;
2021/03/29 06:38:10;;;;;;;5.8;1.6;;;;;;;12.27;37.8291;952.9176;;;;
2021/03/29 06:40:35;;;;;;;1;0.8;;;;;;;12.75;36.5625;952.912;;;;
2021/03/29 06:43:00;;;;;;;2.3;0.8;;;;;;;13.07;35.92383;952.8809;;;;
2021/03/29 06:45:30;;;;;;;2;1;;;;;;;12.56;36.31641;952.8924;;;;
2021/03/29 06:47:55;;;;;;;3.3;1.4;;;;;;;12.25;37.83887;952.8929;;;;
2021/03/29 06:50:21;;;;;;;2;1;;;;;;;11.88;37.03906;952.8792;;;;
2021/03/29 06:52:46;;;;;;;2.5;1;;;;;;;11.72;36.30371;952.8725;;;;
2021/03/29 06:55:11;;;;;;;1;0.6;;;;;;;12.07;34.35059;952.8713;;;;
2021/03/29 06:57:40;;;;;;;0.5;0.5;;;;;;;12.45;35.47168;952.877;;;;
2021/03/29 07:00:03;;;;;;;1.9;0.9;;;;;;;13.34;34.46289;952.7958;;;;
2021/03/29 07:02:30;;;;;;;2.4;1;;;;;;;13.89;33.24121;952.8539;;;;
2021/03/29 07:04:55;;;;;;;3.5;1.2;;;;;;;13.9;32.64355;952.834;;;;
2021/03/29 07:07:20;;;;;;;2.6;0.5;;;;;;;14.01;32.07617;952.7858;;;;
2021/03/29 07:09:46;;;;;;;3.5;0.9;;;;;;;14;32.63965;952.8513;;;;
2021/03/29 07:12:10;;;;;;;1.3;0.5;;;;;;;13.97;31.94727;952.8708;;;;
2021/03/29 07:14:38;;;;;;;1;0.4;;;;;;;14.28;34.46875;952.8276;;;;
2021/03/29 07:17:03;;;;;;;0.3;0.3;;;;;;;15.48;30.69434;952.8066;;;;
2021/03/29 07:19:28;;;;;;;0.5;0.2;;;;;;;15.84;30.24609;952.8387;;;;
2021/03/29 07:21:55;;;;;;;0.2;0.1;;;;;;;15.92;29.52344;952.7698;;;;
2021/03/29 07:24:20;;;;;;;0.6;0.4;;;;;;;16.29;28.34473;952.7772;;;;
2021/03/29 07:26:47;;;;;;;1;0.5;;;;;;;16.73;27.31934;952.8628;;;;
2021/03/29 07:29:12;;;;;;;0.7;0.4;;;;;;;16.55;26.63672;952.8395;;;;
2021/03/29 07:31:37;;;;;;;14.4;0.7;;;;;;;17.32;28.2959;952.8362;;;;
2021/03/29 07:34:02;;;;;;;0.4;0.2;;;;;;;17.66;26.85547;952.7761;;;;
2021/03/29 07:36:27;;;;;;;0.8;0.4;;;;;;;18.25;26.43848;952.8128;;;;
2021/03/29 07:38:52;;;;;;;0.9;0.6;;;;;;;18.77;24.88672;952.8851;;;;
2021/03/29 07:41:17;;;;;;;0.3;0.3;;;;;;;18.36;24.57324;952.7881;;;;
2021/03/29 07:43:46;;;;;;;1;0.7;;;;;;;18.59;24.38867;952.7333;;;;
2021/03/29 07:46:11;;;;;;;15;0.6;;;;;;;19.15;24.34961;952.659;;;;
2021/03/29 07:48:36;;;;;;;2;0.7;;;;;;;19.16;23.74512;952.6364;;;;
2021/03/29 07:51:01;;;;;;;0.6;0.6;;;;;;;19.95;23.33203;952.6814;;;;
2021/03/29 07:53:26;;;;;;;2.9;0.7;;;;;;;18.68;24.67285;952.7026;;;;
2021/03/29 07:55:52;;;;;;;1.9;0.6;;;;;;;19.29;23.39063;952.6947;;;;
2021/03/29 07:58:19;;;;;;;0.6;0.3;;;;;;;19.98;24.15039;952.6239;;;;
2021/03/29 08:00:44;;;;;;;0.5;0.5;;;;;;;21.08;22.59668;952.663;;;;
2021/03/29 08:03:09;;;;;;;3.1;1.3;;;;;;;22.46;20.50781;952.6865;;;;
2021/03/29 08:05:36;;;;;;;2.4;0.4;;;;;;;22.9;19.30664;952.6509;;;;
2021/03/29 08:08:03;;;;;;;1.9;0.6;;;;;;;21.99;21.10742;952.6896;;;;
2021/03/29 08:10:28;;;;;;;1.1;0.3;;;;;;;21.95;20.00391;952.7291;;;;
2021/03/29 08:12:53;;;;;;;1.5;0.5;;;;;;;20.91;20.74023;952.6819;;;;
2021/03/29 08:15:18;;;;;;;0.3;0.3;;;;;;;19.56;23.35742;952.7086;;;;
2021/03/29 08:17:47;;;;;;;1.1;0.4;;;;;;;20.77;21.09668;952.7158;;;;
2021/03/29 08:20:12;;;;;;;4;0.4;;;;;;;20.93;21.19727;952.6509;;;;
2021/03/29 08:22:37;;;;;;;0.4;0.3;;;;;;;22.67;21.1748;952.6839;;;;
2021/03/29 08:25:05;;;;;;;0.8;0.5;;;;;;;23.86;19.87793;952.6633;;;;
2021/03/29 08:27:30;;;;;;;3.5;1;;;;;;;23.75;20.03809;952.6926;;;;
2021/03/29 08:29:57;;;;;;;0.8;0.4;;;;;;;22.68;19.56738;952.726;;;;
2021/03/29 08:32:21;;;;;;;1.5;0.6;;;;;;;22.13;19.0625;952.7064;;;;
2021/03/29 08:34:47;;;;;;;0.9;0.3;;;;;;;23.01;19.48828;952.6484;;;;
2021/03/29 08:37:12;;;;;;;0.9;0.3;;;;;;;24.22;18.90527;952.5969;;;;
2021/03/29 08:39:39;;;;;;;0.3;0.2;;;;;;;25.4;18.65918;952.6066;;;;
2021/03/29 08:42:05;;;;;;;0.3;0.3;;;;;;;26.8;15.85059;952.5879;;;;
2021/03/29 08:44:31;;;;;;;0.3;0.2;;;;;;;25.65;18.05566;952.5901;;;;
2021/03/29 08:46:56;;;;;;;0.9;0.4;;;;;;;24.81;17.85645;952.6577;;;;
2021/03/29 08:49:23;;;;;;;0.2;0.1;;;;;;;24.33;17.23633;952.5391;;;;
2021/03/29 08:51:48;;;;;;;0.3;0.3;;;;;;;24.44;16.66309;952.5483;;;;
2021/03/29 08:54:15;;;;;;;2.3;0.5;;;;;;;25.75;16.7002;952.5078;;;;
2021/03/29 08:56:40;;;;;;;0.3;0.2;;;;;;;26.52;15.47363;952.5176;;;;
2021/03/29 08:59:05;;;;;;;1.3;0.4;;;;;;;27.81;14.46191;952.5672;;;;
2021/03/29 09:01:32;;;;;;;1.7;0.5;;;;;;;26.58;14.88379;952.5714;;;;
2021/03/29 09:03:57;;;;;;;0.9;0.4;;;;;;;27.5;14.60645;952.5823;;;;
2021/03/29 09:06:24;;;;;;;0.8;0.6;;;;;;;27.25;16.0918;952.5378;;;;
2021/03/29 09:08:49;;;;;;;0.3;0.3;;;;;;;27.68;15.84668;952.5742;;;;
2021/03/29 09:11:14;;;;;;;0.8;0.3;;;;;;;28.18;14.05762;952.5055;;;;
2021/03/29 09:13:39;;;;;;;0.4;0.4;;;;;;;28.77;13.31445;952.4863;;;;
2021/03/29 09:16:04;;;;;;;0.2;0.2;;;;;;;28.29;14.57227;952.4531;;;;
2021/03/29 09:18:29;;;;;;;0.2;0.2;;;;;;;28.44;15.01758;952.459;;;;
2021/03/29 09:20:54;;;;;;;1.3;0.5;;;;;;;28.74;13.71875;952.3953;;;;
2021/03/29 09:23:20;;;;;;;0.3;0.3;;;;;;;28.42;14.37402;952.4639;;;;
2021/03/29 09:25:45;;;;;;;0.9;0.4;;;;;;;29.11;14.16992;952.4465;;;;
2021/03/29 09:28:13;;;;;;;0.7;0.2;;;;;;;29.27;15.13965;952.4724;;;;
2021/03/29 09:30:36;;;;;;;0.1;0.1;;;;;;;29.43;13.75098;952.5175;;;;
2021/03/29 09:33:05;;;;;;;0.1;0.1;;;;;;;29.14;14.0166;952.4774;;;;
2021/03/29 09:35:30;;;;;;;1.8;0.4;;;;;;;28.41;15.20605;952.4788;;;;
2021/03/29 09:37:58;;;;;;;1.1;0.8;;;;;;;29.13;14.19434;952.5367;;;;
2021/03/29 09:40:23;;;;;;;0.8;0.4;;;;;;;28.63;15.19043;952.5178;;;;
2021/03/29 09:42:53;;;;;;;0.1;0.1;;;;;;;27.21;15.73535;952.5061;;;;
2021/03/29 09:45:15;;;;;;;0.9;0.4;;;;;;;27.46;15.69629;952.5192;;;;
2021/03/29 09:47:41;;;;;;;0.3;0.2;;;;;;;28.09;14.85059;952.4902;;;;
2021/03/29 09:50:06;;;;;;;0.2;0.2;;;;;;;27.7;15.78809;952.4296;;;;
2021/03/29 09:52:31;;;;;;;0.5;0.2;;;;;;;28.12;15.16113;952.426;;;;
2021/03/29 09:54:56;;;;;;;0.6;0.4;;;;;;;27.15;15.81543;952.4787;;;;
2021/03/29 09:57:21;;;;;;;1.2;0.3;;;;;;;26.8;16.73926;952.3959;;;;
2021/03/29 09:59:46;;;;;;;4;0.3;;;;;;;26.89;16.73145;952.4455;;;;
2021/03/29 10:02:11;;;;;;;0.6;0.5;;;;;;;27.34;15.64453;952.4424;;;;
2021/03/29 10:04:36;;;;;;;0.6;0.2;;;;;;;27.07;13.92773;952.375;;;;
2021/03/29 10:07:01;;;;;;;0.2;0.2;;;;;;;27.15;12.78027;952.338;;;;
2021/03/29 10:09:27;;;;;;;0.6;0.4;;;;;;;27.07;15.30371;952.3686;;;;
2021/03/29 10:11:52;;;;;;;2.8;0.3;;;;;;;27.73;14.63672;952.3885;;;;
2021/03/29 10:14:18;;;;;;;0.6;0.4;;;;;;;27.63;13.76758;952.3915;;;;
2021/03/29 10:16:42;;;;;;;0.2;0.2;;;;;;;27.51;14.06055;952.3889;;;;
2021/03/29 10:19:08;;;;;;;2.5;0.7;;;;;;;27.94;12.625;952.3323;;;;
2021/03/29 10:21:33;;;;;;;1.7;0.6;;;;;;;28;14.08789;952.2974;;;;
2021/03/29 10:23:58;;;;;;;0.9;0.6;;;;;;;27.32;14.29199;952.3108;;;;
2021/03/29 10:26:28;;;;;;;0.3;0.2;;;;;;;27.15;15.17578;952.2545;;;;
2021/03/29 10:28:48;;;;;;;0.4;0.3;;;;;;;26.8;15.83887;952.3083;;;;
2021/03/29 10:31:13;;;;;;;0.2;0.1;;;;;;;27.35;14.90918;952.3466;;;;
2021/03/29 10:33:40;;;;;;;0.2;0.2;;;;;;;27.81;15.10254;952.3898;;;;
2021/03/29 10:36:05;;;;;;;0.3;0.2;;;;;;;27.87;14.71289;952.4411;;;;
2021/03/29 10:38:30;;;;;;;0.4;0.3;;;;;;;27.44;15.37598;952.432;;;;
2021/03/29 10:40:55;;;;;;;0.6;0.5;;;;;;;27.01;16.0957;952.4166;;;;
2021/03/29 10:43:23;;;;;;;0.4;0.3;;;;;;;26.82;16.49121;952.3502;;;;
2021/03/29 10:45:48;;;;;;;0.9;0.5;;;;;;;26.06;17.3623;952.3398;;;;
2021/03/29 10:48:14;;;;;;;0.3;0.2;;;;;;;25.32;17.7002;952.2903;;;;
2021/03/29 10:50:39;;;;;;;0.2;0.2;;;;;;;25.79;16.33594;952.3017;;;;
2021/03/29 10:53:05;;;;;;;0.4;0.3;;;;;;;26.34;15.90625;952.3223;;;;
2021/03/29 10:55:30;;;;;;;1.6;0.3;;;;;;;26.88;15.88965;952.3502;;;;
2021/03/29 10:57:57;;;;;;;1.7;0.6;;;;;;;26.31;17.30078;952.2489;;;;
2021/03/29 11:00:22;;;;;;;0.5;0.3;;;;;;;26.29;17.41895;952.2852;;;;
2021/03/29 11:02:48;;;;;;;0.8;0.4;;;;;;;25.8;18.79395;952.2216;;;;
2021/03/29 11:05:14;;;;;;;1.3;0.2;;;;;;;24.24;18.23438;952.2191;;;;
2021/03/29 11:07:39;;;;;;;0.4;0.3;;;;;;;23.64;19.83301;952.253;;;;
2021/03/29 11:10:04;;;;;;;2.6;0.5;;;;;;;23.12;20.80859;952.1708;;;;
2021/03/29 11:12:31;;;;;;;0.4;0.4;;;;;;;23.38;20.50293;952.1057;;;;
2021/03/29 11:14:56;;;;;;;0.4;0.4;;;;;;;23.75;20.03809;952.2062;;;;
2021/03/29 11:17:25;;;;;;;0.2;0.2;;;;;;;24.06;19.23926;952.1192;;;;
2021/03/29 11:19:46;;;;;;;1.7;0.5;;;;;;;23.52;20.66309;952.118;;;;
2021/03/29 11:22:13;;;;;;;1.3;0.7;;;;;;;24.18;19.72754;952.0313;;;;
2021/03/29 11:24:38;;;;;;;0.3;0.3;;;;;;;24.74;20.36621;952.0214;;;;
2021/03/29 11:27:05;;;;;;;0.9;0.3;;;;;;;24.85;19.43848;951.9995;;;;
2021/03/29 11:29:30;;;;;;;0.5;0.4;;;;;;;24.99;18.67871;952.0485;;;;
2021/03/29 11:31:56;;;;;;;0.3;0.2;;;;;;;24.35;19.7002;952.0475;;;;
2021/03/29 11:34:21;;;;;;;0.2;0.2;;;;;;;23.74;20.16699;952.0746;;;;
2021/03/29 11:36:47;;;;;;;1;0.6;;;;;;;24.7;20.69336;952.0184;;;;
2021/03/29 11:39:12;;;;;;;0.2;0.2;;;;;;;24.71;20.35254;952.0165;;;;
2021/03/29 11:41:38;;;;;;;1.4;0.5;;;;;;;24.65;20.92773;951.9307;;;;
2021/03/29 11:44:04;;;;;;;0.5;0.3;;;;;;;25.11;19.89844;952.0002;;;;
2021/03/29 11:46:29;;;;;;;0.8;0.4;;;;;;;26.06;18.07227;952.0328;;;;
2021/03/29 11:48:54;;;;;;;0.7;0.3;;;;;;;26.13;18.13379;951.9769;;;;
2021/03/29 11:51:21;;;;;;;0.5;0.3;;;;;;;25.8;18.72363;951.9554;;;;
2021/03/29 11:53:46;;;;;;;1.2;0.3;;;;;;;25.92;18.88184;952.0217;;;;
2021/03/29 11:56:12;;;;;;;1;0.5;;;;;;;26.66;17.40918;952.0103;;;;
2021/03/29 11:58:37;;;;;;;1.8;0.4;;;;;;;25.94;19.66406;951.947;;;;
2021/03/29 12:01:09;;;;;;;0.4;0.2;;;;;;;25.38;19.03711;951.8606;;;;
2021/03/29 12:03:34;;;;;;;0.4;0.3;;;;;;;25.52;18.93555;951.8705;;;;
2021/03/29 12:05:56;;;;;;;0.2;0.2;;;;;;;26.4;18.19238;951.9211;;;;
2021/03/29 12:08:26;;;;;;;0.3;0.3;;;;;;;26.23;18.03125;951.8755;;;;
2021/03/29 12:13:12;;;;;;;1.4;0.8;;;;;;;24.83;19.61523;951.9453;;;;
2021/03/29 12:15:37;;;;;;;0.7;0.4;;;;;;;24.04;20.32227;951.9542;;;;
2021/03/29 12:18:04;;;;;;;0.6;0.2;;;;;;;23.46;20.31934;951.997;;;;
2021/03/29 12:20:28;;;;;;;0.2;0.1;;;;;;;22.9;21.50293;951.9614;;;;
2021/03/29 12:22:54;;;;;;;0.4;0.3;;;;;;;23.2;20.57715;951.9459;;;;
2021/03/29 12:25:19;;;;;;;2.8;0.4;;;;;;;22.75;22.12988;951.9656;;;;
2021/03/29 12:27:44;;;;;;;0.2;0.2;;;;;;;22.66;21.98438;951.9451;;;;
2021/03/29 12:30:14;;;;;;;0.3;0.2;;;;;;;22.56;22.42578;951.8537;;;;
2021/03/29 12:32:36;;;;;;;0.3;0.3;;;;;;;22.41;22.22949;951.8435;;;;
2021/03/29 12:35:01;;;;;;;0.3;0.2;;;;;;;23.09;21.44141;951.9098;;;;
2021/03/29 12:37:28;;;;;;;0.5;0.3;;;;;;;23.08;21.84082;951.9034;;;;
2021/03/29 12:39:55;;;;;;;0.5;0.4;;;;;;;23.33;21.06445;951.9001;;;;
2021/03/29 12:42:21;;;;;;;0.5;0.4;;;;;;;23;21.0498;951.8524;;;;
2021/03/29 12:44:42;;;;;;;1.6;0.5;;;;;;;22.95;21.29395;951.8492;;;;
2021/03/29 12:47:09;;;;;;;0.4;0.4;;;;;;;22.69;21.375;951.8187;;;;
2021/03/29 12:49:32;;;;;;;1.6;0.4;;;;;;;21.97;23.70801;951.8543;;;;
2021/03/29 12:51:58;;;;;;;0.1;0.1;;;;;;;22.25;22.83203;951.8644;;;;
2021/03/29 12:54:26;;;;;;;0.7;0.2;;;;;;;22.38;22.78027;951.8342;;;;
2021/03/29 12:56:48;;;;;;;0.7;0.4;;;;;;;23.19;22.1875;951.7869;;;;
2021/03/29 12:59:15;;;;;;;0.2;0.2;;;;;;;23.43;21.02344;951.7748;;;;
2021/03/29 13:01:42;;;;;;;0.7;0.4;;;;;;;24.26;20.2373;951.7318;;;;
2021/03/29 13:04:11;;;;;;;0.2;0.2;;;;;;;24.65;19.77148;951.7466;;;;
2021/03/29 13:06:36;;;;;;;0.4;0.3;;;;;;;25.37;19.73242;951.6515;;;;
2021/03/29 13:09:05;;;;;;;0.6;0.4;;;;;;;26.31;18.91016;951.6844;;;;
2021/03/29 13:11:28;;;;;;;0.1;0.1;;;;;;;27.49;18.18848;951.6442;;;;
2021/03/29 13:13:47;;;;;;;1.1;0.6;;;;;;;28.37;16.89355;951.6298;;;;
2021/03/29 13:16:15;;;;;;;0.4;0.3;;;;;;;27.42;17.35547;951.6094;;;;
2021/03/29 13:18:41;;;;;;;0.9;0.4;;;;;;;26.74;19.76953;951.5173;;;;
2021/03/29 13:21:07;;;;;;;0.5;0.4;;;;;;;26.48;18.59766;951.5433;;;;
2021/03/29 13:23:32;;;;;;;0.6;0.2;;;;;;;26.28;19.25293;951.5986;;;;
2021/03/29 13:25:59;;;;;;;1.8;0.5;;;;;;;26.08;18.25;951.5349;;;;
2021/03/29 13:28:24;;;;;;;0.1;0.1;;;;;;;25.43;20.10156;951.5146;;;;
2021/03/29 13:30:50;;;;;;;0.5;0.3;;;;;;;25.32;19.77832;951.4927;;;;
2021/03/29 13:33:15;;;;;;;3.2;0.4;;;;;;;25.83;19.63477;951.5034;;;;
2021/03/29 13:35:42;;;;;;;0.4;0.2;;;;;;;26.33;18.09473;951.5333;;;;
2021/03/29 13:38:07;;;;;;;6;0.4;;;;;;;26.18;19.04688;951.4167;;;;
2021/03/29 13:40:33;;;;;;;1.4;0.5;;;;;;;25.55;21.07617;951.3678;;;;
2021/03/29 13:42:58;;;;;;;0.1;0.1;;;;;;;25.77;19.18359;951.4347;;;;
2021/03/29 13:45:24;;;;;;;0.4;0.3;;;;;;;25.78;20.33008;951.4385;;;;
2021/03/29 13:47:50;;;;;;;0.8;0.3;;;;;;;25.44;19.94824;951.4132;;;;
2021/03/29 13:50:15;;;;;;;0.2;0.2;;;;;;;25.44;19.37012;951.4149;;;;
2021/03/29 13:52:40;;;;;;;0.3;0.3;;;;;;;25.42;19.16797;951.3206;;;;
2021/03/29 13:55:08;;;;;;;0.7;0.4;;;;;;;25.24;19.93945;951.3026;;;;
2021/03/29 13:57:32;;;;;;;0.4;0.3;;;;;;;25.36;19.31934;951.2576;;;;
2021/03/29 13:59:59;;;;;;;1.3;0.5;;;;;;;25.33;19.53027;951.2429;;;;
2021/03/29 14:02:24;;;;;;;0.4;0.4;;;;;;;25.33;19.36523;951.2847;;;;
2021/03/29 14:04:51;;;;;;;0.2;0.2;;;;;;;24.94;21.20117;951.2181;;;;
2021/03/29 14:07:17;;;;;;;0.4;0.3;;;;;;;24.86;20.24121;951.1861;;;;
2021/03/29 14:09:42;;;;;;;0.5;0.3;;;;;;;24.67;20.52734;951.2541;;;;
2021/03/29 14:12:07;;;;;;;0.5;0.4;;;;;;;24.4;20.93945;951.2208;;;;
2021/03/29 14:14:35;;;;;;;0.9;0.4;;;;;;;24.06;21.99512;951.2296;;;;
2021/03/29 14:16:59;;;;;;;0.3;0.3;;;;;;;23.76;21.75586;951.2582;;;;
2021/03/29 14:19:24;;;;;;;0.4;0.3;;;;;;;23.57;22.55859;951.2544;;;;
2021/03/29 14:21:50;;;;;;;0.6;0.4;;;;;;;23.31;22.12207;951.2257;;;;
2021/03/29 14:24:15;;;;;;;0.3;0.3;;;;;;;22.95;22.44531;951.2747;;;;
2021/03/29 14:26:41;;;;;;;0.9;0.4;;;;;;;22.8;22.83691;951.1736;;;;